createdAt,value
2023-02-05T00:00:10.697Z,1036.63
2023-02-05T00:01:10.510Z,1036.62
2023-02-05T00:02:10.568Z,1036.61
2023-02-05T00:03:10.461Z,1036.60
2023-02-05T00:04:10.376Z,1036.60
2023-02-05T00:05:10.343Z,1036.59
2023-02-05T00:06:10.350Z,1036.58
2023-02-05T00:07:10.293Z,1036.58
2023-02-05T00:08:10.210Z,1036.57
2023-02-05T00:09:10.174Z,1036.57
2023-02-05T00:10:10.165Z,1036.55
2023-02-05T00:11:10.118Z,1036.54
2023-02-05T00:12:10.127Z,1036.54
2023-02-05T00:13:10.006Z,1036.54
2023-02-05T00:14:09.967Z,1036.56
2023-02-05T00:15:09.932Z,1036.56
2023-02-05T00:16:09.985Z,1036.55
2023-02-05T00:17:09.858Z,1036.53
2023-02-05T00:18:09.857Z,1036.52
2023-02-05T00:19:09.759Z,1036.49
2023-02-05T00:20:09.739Z,1036.52
2023-02-05T00:21:09.674Z,1036.48
2023-02-05T00:22:09.633Z,1036.50
2023-02-05T00:23:09.595Z,1036.50
2023-02-05T00:24:09.638Z,1036.47
2023-02-05T00:25:09.509Z,1036.47
2023-02-05T00:26:09.512Z,1036.49
2023-02-05T00:27:09.451Z,1036.46
2023-02-05T00:28:09.474Z,1036.47
2023-02-05T00:29:09.362Z,1036.51
2023-02-05T00:30:09.362Z,1036.50
2023-02-05T00:31:09.329Z,1036.51
2023-02-05T00:32:09.226Z,1036.51
2023-02-05T00:33:09.194Z,1036.52
2023-02-05T00:34:09.151Z,1036.56
2023-02-05T00:35:09.114Z,1036.54
2023-02-05T00:36:10.037Z,1036.55
2023-02-05T00:37:09.038Z,1036.55
2023-02-05T00:38:08.991Z,1036.57
2023-02-05T00:39:08.944Z,1036.58
2023-02-05T00:40:08.908Z,1036.53
2023-02-05T00:41:08.862Z,1036.53
2023-02-05T00:42:08.917Z,1036.53
2023-02-05T00:43:08.780Z,1036.52
2023-02-05T00:44:08.740Z,1036.53
2023-02-05T00:45:08.725Z,1036.53
2023-02-05T00:46:08.674Z,1036.50
2023-02-05T00:47:08.629Z,1036.50
2023-02-05T00:48:08.659Z,1036.50
2023-02-05T00:49:08.534Z,1036.49
2023-02-05T00:50:08.551Z,1036.53
2023-02-05T00:51:08.463Z,1036.55
2023-02-05T00:52:08.440Z,1036.54
2023-02-05T00:53:08.365Z,1036.55
2023-02-05T00:54:08.321Z,1036.59
2023-02-05T00:55:08.344Z,1036.58
2023-02-05T00:56:08.255Z,1036.58
2023-02-05T00:57:08.206Z,1036.58
2023-02-05T00:58:08.161Z,1036.54
2023-02-05T00:59:08.120Z,1036.54
2023-02-05T01:00:08.139Z,1036.52
2023-02-05T01:01:08.075Z,1036.56
2023-02-05T01:02:07.986Z,1036.55
2023-02-05T01:03:07.962Z,1036.55
2023-02-05T01:04:07.912Z,1036.44
2023-02-05T01:05:07.880Z,1036.46
2023-02-05T01:06:07.924Z,1036.42
2023-02-05T01:07:07.792Z,1036.40
2023-02-05T01:08:07.744Z,1036.36
2023-02-05T01:09:07.705Z,1036.36
2023-02-05T01:10:07.669Z,1036.34
2023-02-05T01:11:07.639Z,1036.31
2023-02-05T01:12:07.690Z,1036.31
2023-02-05T01:13:07.563Z,1036.31
2023-02-05T01:14:07.507Z,1036.27
2023-02-05T01:15:07.475Z,1036.25
2023-02-05T01:16:07.465Z,1036.26
2023-02-05T01:17:07.389Z,1036.24
2023-02-05T01:18:07.395Z,1036.19
2023-02-05T01:19:07.300Z,1036.19
2023-02-05T01:20:07.265Z,1036.18
2023-02-05T01:21:07.232Z,1036.13
2023-02-05T01:22:07.186Z,1036.15
2023-02-05T01:23:07.134Z,1036.12
2023-02-05T01:24:07.168Z,1036.10
2023-02-05T01:25:07.054Z,1036.07
2023-02-05T01:26:07.012Z,1036.05
2023-02-05T01:27:06.974Z,1036.08
2023-02-05T01:28:07.096Z,1036.09
2023-02-05T01:29:06.924Z,1036.07
2023-02-05T01:30:06.939Z,1036.06
2023-02-05T01:31:06.895Z,1036.00
2023-02-05T01:32:06.827Z,1035.95
2023-02-05T01:33:06.750Z,1035.95
2023-02-05T01:34:06.687Z,1035.96
2023-02-05T01:35:06.652Z,1035.94
2023-02-05T01:36:06.661Z,1035.93
2023-02-05T01:37:06.575Z,1035.94
2023-02-05T01:38:06.522Z,1035.93
2023-02-05T01:39:06.467Z,1035.94
2023-02-05T01:40:06.434Z,1035.95
2023-02-05T01:41:06.387Z,1035.93
2023-02-05T01:42:06.411Z,1035.94
2023-02-05T01:43:06.303Z,1035.94
2023-02-05T01:44:06.261Z,1035.92
2023-02-05T01:45:06.213Z,1035.89
2023-02-05T01:46:06.240Z,1035.84
2023-02-05T01:47:06.138Z,1035.84
2023-02-05T01:48:06.148Z,1035.81
2023-02-05T01:49:06.050Z,1035.81
2023-02-05T01:50:06.007Z,1035.77
2023-02-05T01:51:05.984Z,1035.76
2023-02-05T01:52:05.926Z,1035.75
2023-02-05T01:53:05.888Z,1035.70
2023-02-05T01:54:05.894Z,1035.68
2023-02-05T01:55:05.804Z,1035.69
2023-02-05T01:56:05.758Z,1035.69
2023-02-05T01:57:05.721Z,1035.67
2023-02-05T01:58:05.679Z,1035.69
2023-02-05T01:59:05.637Z,1035.67
2023-02-05T02:00:05.652Z,1035.60
2023-02-05T02:01:05.601Z,1035.62
2023-02-05T02:02:05.525Z,1035.60
2023-02-05T02:03:05.519Z,1035.58
2023-02-05T02:04:05.432Z,1035.61
2023-02-05T02:05:05.438Z,1035.62
2023-02-05T02:06:05.406Z,1035.59
2023-02-05T02:07:05.306Z,1035.58
2023-02-05T02:08:05.264Z,1035.55
2023-02-05T02:09:05.219Z,1035.53
2023-02-05T02:10:05.182Z,1035.48
2023-02-05T02:11:05.143Z,1035.42
2023-02-05T02:12:05.148Z,1035.43
2023-02-05T02:13:05.051Z,1035.43
2023-02-05T02:14:05.010Z,1035.41
2023-02-05T02:15:05.000Z,1035.43
2023-02-05T02:16:04.966Z,1035.44
2023-02-05T02:17:04.892Z,1035.44
2023-02-05T02:18:04.929Z,1035.48
2023-02-05T02:19:04.816Z,1035.43
2023-02-05T02:20:04.768Z,1035.41
2023-02-05T02:21:04.734Z,1035.42
2023-02-05T02:22:04.680Z,1035.42
2023-02-05T02:23:04.641Z,1035.41
2023-02-05T02:24:04.663Z,1035.38
2023-02-05T02:25:04.574Z,1035.33
2023-02-05T02:26:04.519Z,1035.32
2023-02-05T02:27:04.487Z,1035.33
2023-02-05T02:28:04.508Z,1035.28
2023-02-05T02:29:04.395Z,1035.29
2023-02-05T02:30:04.426Z,1035.24
2023-02-05T02:31:04.417Z,1035.23
2023-02-05T02:32:04.272Z,1035.22
2023-02-05T02:33:04.258Z,1035.20
2023-02-05T02:34:04.186Z,1035.19
2023-02-05T02:35:04.141Z,1035.13
2023-02-05T02:36:04.168Z,1035.15
2023-02-05T02:37:04.062Z,1035.12
2023-02-05T02:38:04.014Z,1035.11
2023-02-05T02:39:03.983Z,1035.09
2023-02-05T02:40:03.935Z,1035.04
2023-02-05T02:41:03.897Z,1035.02
2023-02-05T02:42:03.909Z,1035.02
2023-02-05T02:43:03.812Z,1035.04
2023-02-05T02:44:03.771Z,1035.04
2023-02-05T02:45:03.754Z,1035.07
2023-02-05T02:46:03.711Z,1035.11
2023-02-05T02:47:03.660Z,1035.12
2023-02-05T02:48:03.664Z,1035.09
2023-02-05T02:49:03.588Z,1035.16
2023-02-05T02:50:03.552Z,1035.15
2023-02-05T02:51:03.487Z,1035.17
2023-02-05T02:52:03.500Z,1035.18
2023-02-05T02:53:03.397Z,1035.17
2023-02-05T02:54:03.355Z,1035.13
2023-02-05T02:55:03.319Z,1035.14
2023-02-05T02:56:03.294Z,1035.11
2023-02-05T02:57:03.295Z,1035.14
2023-02-05T02:58:03.205Z,1035.18
2023-02-05T02:59:03.151Z,1035.14
2023-02-05T03:00:03.109Z,1035.17
2023-02-05T03:01:03.124Z,1035.18
2023-02-05T03:02:03.100Z,1035.20
2023-02-05T03:03:02.991Z,1035.16
2023-02-05T03:04:02.986Z,1035.17
2023-02-05T03:05:02.902Z,1035.21
2023-02-05T03:06:02.863Z,1035.17
2023-02-05T03:07:02.880Z,1035.21
2023-02-05T03:08:02.783Z,1035.20
2023-02-05T03:09:02.736Z,1035.16
2023-02-05T03:10:02.715Z,1035.23
2023-02-05T03:11:02.651Z,1035.24
2023-02-05T03:12:02.683Z,1035.22
2023-02-05T03:13:02.573Z,1035.24
2023-02-05T03:14:02.557Z,1035.19
2023-02-05T03:15:02.561Z,1035.22
2023-02-05T03:16:02.491Z,1035.28
2023-02-05T03:17:02.469Z,1035.26
2023-02-05T03:18:02.360Z,1035.23
2023-02-05T03:19:02.333Z,1035.19
2023-02-05T03:20:02.292Z,1035.24
2023-02-05T03:21:02.237Z,1035.21
2023-02-05T03:22:02.217Z,1035.21
2023-02-05T03:23:02.237Z,1035.15
2023-02-05T03:24:02.124Z,1035.15
2023-02-05T03:25:02.073Z,1035.13
2023-02-05T03:26:02.030Z,1035.12
2023-02-05T03:27:01.987Z,1035.07
2023-02-05T03:28:02.073Z,1035.05
2023-02-05T03:29:01.958Z,1035.03
2023-02-05T03:30:01.890Z,1035.00
2023-02-05T03:31:01.850Z,1035.05
2023-02-05T03:32:01.786Z,1034.99
2023-02-05T03:33:01.744Z,1035.02
2023-02-05T03:34:01.693Z,1035.02
2023-02-05T03:35:01.750Z,1035.02
2023-02-05T03:36:01.619Z,1035.04
2023-02-05T03:37:01.596Z,1035.05
2023-02-05T03:38:01.579Z,1035.07
2023-02-05T03:39:01.492Z,1035.06
2023-02-05T03:40:01.458Z,1035.05
2023-02-05T03:41:01.465Z,1035.05
2023-02-05T03:42:01.372Z,1035.02
2023-02-05T03:43:01.325Z,1034.95
2023-02-05T03:44:01.289Z,1034.99
2023-02-05T03:45:01.243Z,1034.94
2023-02-05T03:46:01.278Z,1034.95
2023-02-05T03:47:01.218Z,1034.97
2023-02-05T03:48:01.185Z,1034.95
2023-02-05T03:49:01.080Z,1034.98
2023-02-05T03:50:01.039Z,1034.97
2023-02-05T03:51:00.992Z,1034.95
2023-02-05T03:52:00.957Z,1034.95
2023-02-05T03:53:00.916Z,1034.93
2023-02-05T03:54:00.935Z,1034.92
2023-02-05T03:55:00.838Z,1034.91
2023-02-05T03:56:00.790Z,1034.94
2023-02-05T03:57:00.749Z,1034.90
2023-02-05T03:58:00.700Z,1034.92
2023-02-05T03:59:00.734Z,1034.92
2023-02-05T04:00:00.618Z,1035.01
2023-02-05T04:01:00.616Z,1034.97
2023-02-05T04:02:00.575Z,1035.00
2023-02-05T04:03:00.496Z,1035.00
2023-02-05T04:04:00.452Z,1034.98
2023-02-05T04:05:00.489Z,1035.01
2023-02-05T04:06:00.382Z,1034.97
2023-02-05T04:07:00.327Z,1034.99
2023-02-05T04:08:00.281Z,1034.97
2023-02-05T04:09:00.248Z,1035.00
2023-02-05T04:10:00.224Z,1035.02
2023-02-05T04:11:00.252Z,1035.03
2023-02-05T04:12:00.121Z,1035.04
2023-02-05T04:13:00.099Z,1035.14
2023-02-05T04:14:00.040Z,1035.15
2023-02-05T04:15:00.008Z,1035.13
2023-02-05T04:15:59.954Z,1035.12
2023-02-05T04:16:59.961Z,1035.16
2023-02-05T04:17:59.871Z,1035.13
2023-02-05T04:18:59.828Z,1035.16
2023-02-05T04:19:59.862Z,1035.16
2023-02-05T04:20:59.746Z,1035.16
2023-02-05T04:21:59.700Z,1035.12
2023-02-05T04:22:59.668Z,1035.15
2023-02-05T04:23:59.671Z,1035.17
2023-02-05T04:24:59.587Z,1035.17
2023-02-05T04:25:59.588Z,1035.16
2023-02-05T04:26:59.509Z,1035.20
2023-02-05T04:27:59.541Z,1035.17
2023-02-05T04:28:59.417Z,1035.19
2023-02-05T04:29:59.386Z,1035.22
2023-02-05T04:30:59.444Z,1035.15
2023-02-05T04:31:59.296Z,1035.14
2023-02-05T04:32:59.250Z,1035.12
2023-02-05T04:33:59.213Z,1035.05
2023-02-05T04:34:59.178Z,1035.05
2023-02-05T04:35:59.197Z,1035.14
2023-02-05T04:36:59.088Z,1035.12
2023-02-05T04:37:59.044Z,1035.20
2023-02-05T04:38:59.003Z,1035.19
2023-02-05T04:39:58.966Z,1035.22
2023-02-05T04:40:58.924Z,1035.20
2023-02-05T04:41:58.958Z,1035.17
2023-02-05T04:42:58.839Z,1035.15
2023-02-05T04:43:58.797Z,1035.17
2023-02-05T04:44:58.755Z,1035.15
2023-02-05T04:45:58.736Z,1035.11
2023-02-05T04:46:58.739Z,1035.10
2023-02-05T04:47:58.643Z,1035.05
2023-02-05T04:48:58.604Z,1035.10
2023-02-05T04:49:58.552Z,1035.09
2023-02-05T04:50:58.510Z,1035.09
2023-02-05T04:51:58.481Z,1035.09
2023-02-05T04:52:58.487Z,1035.12
2023-02-05T04:53:58.393Z,1035.13
2023-02-05T04:54:58.346Z,1035.14
2023-02-05T04:55:58.320Z,1035.10
2023-02-05T04:56:58.280Z,1035.06
2023-02-05T04:57:58.228Z,1035.03
2023-02-05T04:58:58.240Z,1034.98
2023-02-05T04:59:58.138Z,1035.00
2023-02-05T05:00:58.126Z,1035.03
2023-02-05T05:01:58.060Z,1035.00
2023-02-05T05:02:58.028Z,1035.04
2023-02-05T05:03:57.986Z,1035.01
2023-02-05T05:04:57.995Z,1035.05
2023-02-05T05:05:57.893Z,1035.03
2023-02-05T05:06:57.857Z,1035.02
2023-02-05T05:07:57.819Z,1035.00
2023-02-05T05:08:57.792Z,1035.03
2023-02-05T05:09:57.732Z,1035.01
2023-02-05T05:10:57.740Z,1035.06
2023-02-05T05:11:57.644Z,1035.05
2023-02-05T05:12:57.610Z,1035.01
2023-02-05T05:13:57.577Z,1035.05
2023-02-05T05:14:57.521Z,1035.02
2023-02-05T05:15:57.509Z,1035.01
2023-02-05T05:16:57.498Z,1035.01
2023-02-05T05:17:57.411Z,1035.00
2023-02-05T05:18:57.355Z,1034.95
2023-02-05T05:19:59.870Z,1034.94
2023-02-05T05:20:57.284Z,1034.93
2023-02-05T05:21:57.244Z,1034.90
2023-02-05T05:22:57.251Z,1034.89
2023-02-05T05:23:57.153Z,1034.87
2023-02-05T05:24:57.125Z,1034.86
2023-02-05T05:25:57.076Z,1034.88
2023-02-05T05:26:57.034Z,1034.90
2023-02-05T05:27:57.025Z,1034.93
2023-02-05T05:28:57.009Z,1034.99
2023-02-05T05:29:56.906Z,1035.02
2023-02-05T05:30:56.887Z,1035.02
2023-02-05T05:31:56.839Z,1035.03
2023-02-05T05:32:56.790Z,1035.06
2023-02-05T05:33:56.740Z,1035.08
2023-02-05T05:34:56.763Z,1035.10
2023-02-05T05:35:56.655Z,1035.14
2023-02-05T05:36:56.621Z,1035.13
2023-02-05T05:37:56.578Z,1035.15
2023-02-05T05:38:56.538Z,1035.13
2023-02-05T05:39:56.496Z,1035.13
2023-02-05T05:40:56.509Z,1035.13
2023-02-05T05:41:56.413Z,1035.12
2023-02-05T05:42:56.375Z,1035.16
2023-02-05T05:43:56.328Z,1035.09
2023-02-05T05:44:56.289Z,1035.13
2023-02-05T05:45:56.301Z,1035.11
2023-02-05T05:46:56.253Z,1035.10
2023-02-05T05:47:56.161Z,1035.13
2023-02-05T05:48:56.135Z,1035.11
2023-02-05T05:49:56.082Z,1035.13
2023-02-05T05:50:56.040Z,1035.14
2023-02-05T05:51:56.059Z,1035.14
2023-02-05T05:52:55.957Z,1035.13
2023-02-05T05:53:55.919Z,1035.13
2023-02-05T05:54:55.887Z,1035.06
2023-02-05T05:55:55.834Z,1035.01
2023-02-05T05:56:55.843Z,1035.00
2023-02-05T05:57:55.754Z,1034.99
2023-02-05T05:58:55.761Z,1035.02
2023-02-05T05:59:55.666Z,1035.05
2023-02-05T06:00:55.627Z,1035.04
2023-02-05T06:01:55.585Z,1035.05
2023-02-05T06:02:55.616Z,1035.09
2023-02-05T06:03:55.502Z,1035.12
2023-02-05T06:04:55.459Z,1035.16
2023-02-05T06:05:55.423Z,1035.20
2023-02-05T06:06:55.380Z,1035.15
2023-02-05T06:07:55.335Z,1035.11
2023-02-05T06:08:55.348Z,1035.05
2023-02-05T06:09:55.271Z,1035.04
2023-02-05T06:10:55.220Z,1034.97
2023-02-05T06:11:55.178Z,1035.00
2023-02-05T06:12:55.134Z,1034.98
2023-02-05T06:13:55.143Z,1034.97
2023-02-05T06:14:55.052Z,1034.94
2023-02-05T06:15:55.031Z,1034.89
2023-02-05T06:16:54.973Z,1034.89
2023-02-05T06:17:54.933Z,1034.87
2023-02-05T06:18:54.884Z,1034.87
2023-02-05T06:19:54.910Z,1034.85
2023-02-05T06:20:54.805Z,1034.83
2023-02-05T06:21:54.768Z,1034.89
2023-02-05T06:22:54.727Z,1034.89
2023-02-05T06:23:54.685Z,1034.87
2023-02-05T06:24:54.701Z,1034.91
2023-02-05T06:25:54.598Z,1034.90
2023-02-05T06:26:54.556Z,1034.88
2023-02-05T06:27:54.540Z,1034.88
2023-02-05T06:28:54.480Z,1034.96
2023-02-05T06:29:54.455Z,1034.98
2023-02-05T06:30:54.492Z,1035.07
2023-02-05T06:31:54.407Z,1035.05
2023-02-05T06:32:54.317Z,1035.11
2023-02-05T06:33:54.271Z,1035.06
2023-02-05T06:34:54.232Z,1035.10
2023-02-05T06:35:54.196Z,1035.10
2023-02-05T06:36:54.212Z,1035.05
2023-02-05T06:37:54.111Z,1035.05
2023-02-05T06:38:54.068Z,1035.05
2023-02-05T06:39:54.034Z,1035.09
2023-02-05T06:40:53.995Z,1035.10
2023-02-05T06:41:53.950Z,1035.08
2023-02-05T06:42:53.962Z,1035.08
2023-02-05T06:43:53.868Z,1035.09
2023-02-05T06:44:53.831Z,1035.09
2023-02-05T06:45:53.792Z,1035.07
2023-02-05T06:46:53.748Z,1035.07
2023-02-05T06:47:53.711Z,1035.07
2023-02-05T06:48:53.719Z,1035.05
2023-02-05T06:49:53.631Z,1035.10
2023-02-05T06:50:53.588Z,1035.03
2023-02-05T06:51:53.547Z,1035.08
2023-02-05T06:52:53.513Z,1035.10
2023-02-05T06:53:53.478Z,1035.09
2023-02-05T06:54:53.506Z,1035.13
2023-02-05T06:55:53.388Z,1035.16
2023-02-05T06:56:53.350Z,1035.17
2023-02-05T06:57:53.312Z,1035.18
2023-02-05T06:58:53.270Z,1035.23
2023-02-05T06:59:53.227Z,1035.20
2023-02-05T07:00:53.254Z,1035.14
2023-02-05T07:01:53.172Z,1035.13
2023-02-05T07:02:53.178Z,1035.13
2023-02-05T07:03:53.062Z,1035.13
2023-02-05T07:04:53.020Z,1035.07
2023-02-05T07:05:52.984Z,1035.08
2023-02-05T07:06:52.996Z,1035.04
2023-02-05T07:07:52.906Z,1035.01
2023-02-05T07:08:52.870Z,1035.00
2023-02-05T07:09:52.829Z,1035.01
2023-02-05T07:10:52.797Z,1034.98
2023-02-05T07:11:52.748Z,1035.03
2023-02-05T07:12:52.758Z,1035.04
2023-02-05T07:13:52.746Z,1035.03
2023-02-05T07:14:52.621Z,1035.01
2023-02-05T07:15:52.615Z,1034.99
2023-02-05T07:16:52.540Z,1034.97
2023-02-05T07:17:52.500Z,1034.92
2023-02-05T07:18:52.517Z,1034.89
2023-02-05T07:19:52.433Z,1034.84
2023-02-05T07:20:52.382Z,1034.85
2023-02-05T07:21:52.349Z,1034.81
2023-02-05T07:22:52.311Z,1034.79
2023-02-05T07:23:52.267Z,1034.78
2023-02-05T07:24:52.271Z,1034.75
2023-02-05T07:25:52.194Z,1034.74
2023-02-05T07:26:52.153Z,1034.72
2023-02-05T07:27:52.139Z,1034.73
2023-02-05T07:28:52.066Z,1034.72
2023-02-05T07:29:52.037Z,1034.72
2023-02-05T07:30:52.092Z,1034.78
2023-02-05T07:31:52.004Z,1034.80
2023-02-05T07:32:51.931Z,1034.79
2023-02-05T07:33:51.873Z,1034.77
2023-02-05T07:34:51.846Z,1034.75
2023-02-05T07:35:51.804Z,1034.75
2023-02-05T07:36:51.800Z,1034.78
2023-02-05T07:37:51.701Z,1034.81
2023-02-05T07:38:51.669Z,1034.82
2023-02-05T07:39:51.621Z,1034.82
2023-02-05T07:40:51.584Z,1034.86
2023-02-05T07:41:51.598Z,1034.92
2023-02-05T07:42:51.517Z,1034.90
2023-02-05T07:43:51.453Z,1034.91
2023-02-05T07:44:51.423Z,1034.88
2023-02-05T07:45:51.382Z,1034.83
2023-02-05T07:46:51.374Z,1034.79
2023-02-05T07:47:51.415Z,1034.82
2023-02-05T07:48:51.259Z,1034.77
2023-02-05T07:49:51.212Z,1034.81
2023-02-05T07:50:51.242Z,1034.83
2023-02-05T07:51:51.142Z,1034.81
2023-02-05T07:52:51.098Z,1034.79
2023-02-05T07:53:51.114Z,1034.80
2023-02-05T07:54:51.021Z,1034.80
2023-02-05T07:55:50.982Z,1034.76
2023-02-05T07:56:50.945Z,1034.80
2023-02-05T07:57:50.904Z,1034.77
2023-02-05T07:58:50.999Z,1034.73
2023-02-05T07:59:50.822Z,1034.71
2023-02-05T08:00:50.873Z,1034.71
2023-02-05T08:01:50.754Z,1034.72
2023-02-05T08:02:50.708Z,1034.73
2023-02-05T08:03:50.775Z,1034.71
2023-02-05T08:04:50.680Z,1034.74
2023-02-05T08:05:50.589Z,1034.72
2023-02-05T08:06:50.546Z,1034.75
2023-02-05T08:07:50.538Z,1034.72
2023-02-05T08:08:50.475Z,1034.68
2023-02-05T08:09:50.493Z,1034.64
2023-02-05T08:10:50.395Z,1034.60
2023-02-05T08:11:50.355Z,1034.57
2023-02-05T08:12:50.325Z,1034.58
2023-02-05T08:13:50.275Z,1034.56
2023-02-05T08:14:50.234Z,1034.55
2023-02-05T08:15:50.258Z,1034.55
2023-02-05T08:16:50.160Z,1034.53
2023-02-05T08:17:50.122Z,1034.53
2023-02-05T08:18:50.087Z,1034.52
2023-02-05T08:19:50.038Z,1034.54
2023-02-05T08:20:50.083Z,1034.56
2023-02-05T08:21:49.963Z,1034.51
2023-02-05T08:22:49.937Z,1034.53
2023-02-05T08:23:49.889Z,1034.53
2023-02-05T08:24:49.863Z,1034.53
2023-02-05T08:25:49.813Z,1034.55
2023-02-05T08:26:49.831Z,1034.54
2023-02-05T08:27:49.756Z,1034.57
2023-02-05T08:28:49.691Z,1034.54
2023-02-05T08:29:49.679Z,1034.55
2023-02-05T08:30:49.648Z,1034.52
2023-02-05T08:31:49.657Z,1034.58
2023-02-05T08:32:49.540Z,1034.57
2023-02-05T08:33:49.494Z,1034.59
2023-02-05T08:34:49.466Z,1034.67
2023-02-05T08:35:49.428Z,1034.64
2023-02-05T08:36:49.439Z,1034.66
2023-02-05T08:37:49.344Z,1034.63
2023-02-05T08:38:49.310Z,1034.65
2023-02-05T08:39:49.260Z,1034.64
2023-02-05T08:40:49.222Z,1034.64
2023-02-05T08:41:49.188Z,1034.66
2023-02-05T08:42:49.211Z,1034.66
2023-02-05T08:43:49.125Z,1034.67
2023-02-05T08:44:49.074Z,1034.64
2023-02-05T08:45:49.038Z,1034.57
2023-02-05T08:46:50.410Z,1034.54
2023-02-05T08:47:49.023Z,1034.55
2023-02-05T08:48:48.909Z,1034.54
2023-02-05T08:49:48.891Z,1034.47
2023-02-05T08:50:48.835Z,1034.47
2023-02-05T08:51:48.797Z,1034.48
2023-02-05T08:52:48.819Z,1034.45
2023-02-05T08:53:48.722Z,1034.47
2023-02-05T08:54:48.679Z,1034.50
2023-02-05T08:55:48.662Z,1034.47
2023-02-05T08:56:48.605Z,1034.51
2023-02-05T08:57:48.627Z,1034.54
2023-02-05T08:58:48.546Z,1034.55
2023-02-05T08:59:48.491Z,1034.55
2023-02-05T09:00:48.492Z,1034.58
2023-02-05T09:01:48.413Z,1034.59
2023-02-05T09:02:48.381Z,1034.58
2023-02-05T09:03:48.419Z,1034.58
2023-02-05T09:04:48.303Z,1034.62
2023-02-05T09:05:48.291Z,1034.60
2023-02-05T09:06:48.228Z,1034.59
2023-02-05T09:07:48.179Z,1034.59
2023-02-05T09:08:48.146Z,1034.62
2023-02-05T09:09:48.193Z,1034.55
2023-02-05T09:10:48.074Z,1034.58
2023-02-05T09:11:48.038Z,1034.58
2023-02-05T09:12:47.985Z,1034.57
2023-02-05T09:13:47.947Z,1034.60
2023-02-05T09:14:47.964Z,1034.57
2023-02-05T09:15:48.706Z,1034.58
2023-02-05T09:16:47.868Z,1034.52
2023-02-05T09:17:47.800Z,1034.55
2023-02-05T09:18:47.762Z,1034.57
2023-02-05T09:19:47.813Z,1034.59
2023-02-05T09:20:47.686Z,1034.56
2023-02-05T09:21:47.642Z,1034.55
2023-02-05T09:22:47.608Z,1034.57
2023-02-05T09:23:47.568Z,1034.54
2023-02-05T09:24:47.530Z,1034.57
2023-02-05T09:25:47.549Z,1034.59
2023-02-05T09:26:47.453Z,1034.56
2023-02-05T09:27:47.465Z,1034.59
2023-02-05T09:28:47.382Z,1034.56
2023-02-05T09:29:47.342Z,1034.58
2023-02-05T09:30:47.475Z,1034.51
2023-02-05T09:31:47.371Z,1034.56
2023-02-05T09:32:47.228Z,1034.55
2023-02-05T09:33:47.190Z,1034.53
2023-02-05T09:34:47.150Z,1034.56
2023-02-05T09:35:47.117Z,1034.58
2023-02-05T09:36:47.134Z,1034.59
2023-02-05T09:37:47.038Z,1034.60
2023-02-05T09:38:46.993Z,1034.62
2023-02-05T09:40:46.924Z,1034.64
2023-02-05T09:41:46.927Z,1034.66
2023-02-05T09:42:46.932Z,1034.68
2023-02-05T09:43:46.812Z,1034.64
2023-02-05T09:44:46.773Z,1034.64
2023-02-05T09:45:46.767Z,1034.66
2023-02-05T09:46:46.689Z,1034.64
2023-02-05T09:47:46.714Z,1034.69
2023-02-05T09:48:46.618Z,1034.67
2023-02-05T09:49:46.588Z,1034.63
2023-02-05T09:50:46.542Z,1034.61
2023-02-05T09:51:46.508Z,1034.60
2023-02-05T09:52:46.465Z,1034.59
2023-02-05T09:53:46.481Z,1034.56
2023-02-05T09:54:46.386Z,1034.53
2023-02-05T09:55:46.366Z,1034.55
2023-02-05T09:56:46.327Z,1034.55
2023-02-05T09:57:46.278Z,1034.53
2023-02-05T09:58:46.288Z,1034.56
2023-02-05T09:59:46.292Z,1034.57
2023-02-05T10:00:46.168Z,1034.55
2023-02-05T10:01:46.172Z,1034.55
2023-02-05T10:02:46.089Z,1034.55
2023-02-05T10:03:46.048Z,1034.58
2023-02-05T10:04:46.020Z,1034.56
2023-02-05T10:05:46.032Z,1034.56
2023-02-05T10:06:45.944Z,1034.51
2023-02-05T10:07:45.895Z,1034.47
2023-02-05T10:08:45.894Z,1034.45
2023-02-05T10:09:45.832Z,1034.42
2023-02-05T10:10:45.780Z,1034.36
2023-02-05T10:11:45.814Z,1034.37
2023-02-05T10:12:45.858Z,1034.37
2023-02-05T10:13:45.833Z,1034.35
2023-02-05T10:14:47.306Z,1034.35
2023-02-05T10:15:45.750Z,1034.37
2023-02-05T10:16:45.608Z,1034.37
2023-02-05T10:17:46.150Z,1034.39
2023-02-05T10:18:45.514Z,1034.40
2023-02-05T10:19:45.453Z,1034.41
2023-02-05T10:20:45.429Z,1034.42
2023-02-05T10:21:45.381Z,1034.38
2023-02-05T10:22:45.354Z,1034.38
2023-02-05T10:23:45.365Z,1034.33
2023-02-05T10:24:45.278Z,1034.36
2023-02-05T10:25:45.807Z,1034.34
2023-02-05T10:26:45.191Z,1034.35
2023-02-05T10:27:45.200Z,1034.34
2023-02-05T10:28:45.204Z,1034.33
2023-02-05T10:29:45.086Z,1034.32
2023-02-05T10:30:45.124Z,1034.26
2023-02-05T10:31:45.025Z,1034.25
2023-02-05T10:32:44.981Z,1034.23
2023-02-05T10:33:44.938Z,1034.23
2023-02-05T10:34:44.958Z,1034.25
2023-02-05T10:35:44.869Z,1034.24
2023-02-05T10:36:44.857Z,1034.20
2023-02-05T10:37:45.139Z,1034.18
2023-02-05T10:38:44.879Z,1034.13
2023-02-05T10:39:44.805Z,1034.12
2023-02-05T10:40:44.676Z,1034.09
2023-02-05T10:41:44.639Z,1034.11
2023-02-05T10:42:44.616Z,1034.03
2023-02-05T10:43:44.870Z,1033.99
2023-02-05T10:44:44.565Z,1033.98
2023-02-05T10:45:44.552Z,1033.96
2023-02-05T10:46:44.463Z,1033.89
2023-02-05T10:47:44.416Z,1033.90
2023-02-05T10:48:44.386Z,1033.89
2023-02-05T10:49:45.145Z,1033.87
2023-02-05T10:50:44.315Z,1033.88
2023-02-05T10:51:44.351Z,1033.89
2023-02-05T10:52:44.904Z,1033.92
2023-02-05T10:53:44.226Z,1033.88
2023-02-05T10:54:44.231Z,1033.91
2023-02-05T10:55:44.143Z,1033.92
2023-02-05T10:56:44.104Z,1033.89
2023-02-05T10:57:44.046Z,1033.91
2023-02-05T10:58:44.127Z,1033.91
2023-02-05T10:59:44.167Z,1033.93
2023-02-05T11:00:44.006Z,1033.90
2023-02-05T11:01:43.953Z,1033.89
2023-02-05T11:02:43.910Z,1033.88
2023-02-05T11:03:43.827Z,1033.90
2023-02-05T11:04:43.800Z,1033.86
2023-02-05T11:05:43.807Z,1033.86
2023-02-05T11:06:44.519Z,1033.84
2023-02-05T11:07:43.715Z,1033.87
2023-02-05T11:08:43.721Z,1033.85
2023-02-05T11:09:43.865Z,1033.84
2023-02-05T11:10:43.589Z,1033.87
2023-02-05T11:11:44.128Z,1033.88
2023-02-05T11:12:43.509Z,1033.89
2023-02-05T11:13:44.407Z,1033.92
2023-02-05T11:14:43.426Z,1033.92
2023-02-05T11:15:43.526Z,1033.91
2023-02-05T11:16:43.366Z,1033.96
2023-02-05T11:17:43.465Z,1033.96
2023-02-05T11:18:43.280Z,1033.98
2023-02-05T11:19:43.449Z,1033.98
2023-02-05T11:20:43.209Z,1034.05
2023-02-05T11:21:43.281Z,1034.07
2023-02-05T11:22:43.133Z,1034.06
2023-02-05T11:23:44.153Z,1034.02
2023-02-05T11:24:43.078Z,1034.01
2023-02-05T11:25:43.348Z,1034.01
2023-02-05T11:26:42.989Z,1034.00
2023-02-05T11:27:42.972Z,1033.99
2023-02-05T11:28:42.909Z,1033.96
2023-02-05T11:29:43.167Z,1033.98
2023-02-05T11:30:51.806Z,1034.00
2023-02-05T11:31:42.881Z,1033.95
2023-02-05T11:32:42.781Z,1033.94
2023-02-05T11:33:42.731Z,1033.99
2023-02-05T11:34:42.712Z,1033.95
2023-02-05T11:35:42.760Z,1033.97
2023-02-05T11:36:42.630Z,1034.01
2023-02-05T11:37:42.584Z,1033.96
2023-02-05T11:38:42.617Z,1033.95
2023-02-05T11:39:42.526Z,1033.94
2023-02-05T11:40:42.480Z,1033.96
2023-02-05T11:41:42.513Z,1033.97
2023-02-05T11:42:42.463Z,1034.01
2023-02-05T11:43:42.367Z,1033.98
2023-02-05T11:44:42.353Z,1033.96
2023-02-05T11:45:42.306Z,1033.96
2023-02-05T11:46:42.377Z,1033.92
2023-02-05T11:47:42.295Z,1033.89
2023-02-05T11:48:42.277Z,1033.91
2023-02-05T11:49:42.153Z,1033.88
2023-02-05T11:50:42.124Z,1033.90
2023-02-05T11:51:42.100Z,1033.88
2023-02-05T11:52:42.130Z,1033.89
2023-02-05T11:53:42.111Z,1033.86
2023-02-05T11:54:42.055Z,1033.85
2023-02-05T11:55:41.954Z,1033.86
2023-02-05T11:56:42.126Z,1033.90
2023-02-05T11:57:41.969Z,1033.90
2023-02-05T11:58:42.434Z,1033.92
2023-02-05T11:59:41.855Z,1033.94
2023-02-05T12:00:41.824Z,1033.93
2023-02-05T12:01:41.739Z,1033.95
2023-02-05T12:02:41.745Z,1033.95
2023-02-05T12:03:41.692Z,1033.98
2023-02-05T12:04:42.421Z,1033.96
2023-02-05T12:05:41.648Z,1033.99